Time;durP1;ratioP1;P1;durP2;ratioP2;P2;SDS_P1;SDS_P2;PMS_P1;PMS_P2;Temp;Humidity;BMP_temperature;BMP_pressure;BME280_temperature;BME280_humidity;BME280_pressure;Samples;Min_cycle;Max_cycle;Signal;HPM_P1;HPM_P2
2022/05/03 00:02:32;;;;;;;5.90;5.32;;;15.30;99.90;;;;;;5093015;28;20024;-88
2022/05/03 00:05:11;;;;;;;5.80;5.22;;;14.90;99.90;;;;;;5091323;28;20088;-88
2022/05/03 00:07:46;;;;;;;6.65;5.32;;;15.00;99.90;;;;;;5092429;28;20024;-88
2022/05/03 00:10:20;;;;;;;6.53;5.85;;;14.90;99.90;;;;;;5091374;28;20071;-87
2022/05/03 00:13:25;;;;;;;5.95;5.35;;;15.00;99.90;;;;;;5087921;28;20364;-88
2022/05/03 00:15:53;;;;;;;5.85;4.88;;;15.30;99.90;;;;;;5050208;28;20064;-88
2022/05/03 00:18:19;;;;;;;8.07;5.43;;;15.10;99.90;;;;;;5070272;28;20126;-88
2022/05/03 00:20:47;;;;;;;6.80;4.75;;;15.20;99.90;;;;;;5070106;28;20029;-87
2022/05/03 00:23:14;;;;;;;5.55;4.68;;;15.30;99.90;;;;;;5069582;28;20021;-88
2022/05/03 00:25:40;;;;;;;7.82;5.13;;;15.50;99.90;;;;;;5053085;28;20478;-88
2022/05/03 00:28:07;;;;;;;7.10;5.30;;;15.20;99.90;;;;;;5069742;28;20052;-88
2022/05/03 00:30:35;;;;;;;6.20;5.05;;;15.10;99.90;;;;;;5070623;28;20106;-88
2022/05/03 00:33:02;;;;;;;6.95;5.10;;;15.30;99.90;;;;;;5069990;28;20036;-88
2022/05/03 00:35:28;;;;;;;6.13;5.53;;;15.50;99.90;;;;;;5069711;28;20027;-89
2022/05/03 00:37:54;;;;;;;6.10;5.50;;;15.30;99.90;;;;;;5053556;28;20048;-90
2022/05/03 00:40:21;;;;;;;5.78;5.20;;;15.10;99.90;;;;;;5052715;28;20039;-90
2022/05/03 00:43:01;;;;;;;6.22;5.63;;;15.00;99.90;;;;;;5066533;28;20550;-90
2022/05/03 00:45:38;;;;;;;7.22;5.28;;;15.00;99.90;;;;;;5069504;28;20040;-90
2022/05/03 00:48:28;;;;;;;5.90;5.32;;;14.70;99.90;;;;;;5052722;28;20493;-90
2022/05/03 00:51:18;;;;;;;7.15;5.38;;;14.90;99.90;;;;;;5070387;28;20112;-90
2022/05/03 00:53:59;;;;;;;5.93;5.35;;;14.60;99.90;;;;;;5085172;28;20032;-90
2022/05/03 00:56:27;;;;;;;6.97;5.40;;;14.50;99.90;;;;;;5091931;28;20500;-90
2022/05/03 00:59:29;;;;;;;7.47;6.05;;;14.70;99.90;;;;;;5091727;28;20024;-90
2022/05/03 01:02:00;;;;;;;6.05;5.45;;;14.80;99.90;;;;;;5090462;28;20136;-90
2022/05/03 01:04:34;;;;;;;8.02;5.57;;;14.50;99.90;;;;;;5090924;28;20016;-90
2022/05/03 01:07:09;;;;;;;7.05;5.68;;;14.20;99.90;;;;;;5091621;28;20062;-90
2022/05/03 01:10:02;;;;;;;7.35;6.05;;;14.10;99.90;;;;;;5091141;28;20032;-89
2022/05/03 01:13:03;;;;;;;7.35;5.65;;;14.40;99.90;;;;;;5091043;28;20066;-90
2022/05/03 01:15:34;;;;;;;6.20;5.60;;;14.60;99.90;;;;;;5090133;28;20573;-90
2022/05/03 01:18:11;;;;;;;6.32;5.75;;;14.60;99.90;;;;;;5091538;28;20078;-90
2022/05/03 01:20:50;;;;;;;9.23;5.57;;;14.40;99.90;;;;;;5090693;28;20055;-89
2022/05/03 01:23:31;;;;;;;6.15;5.55;;;14.50;99.90;;;;;;5091381;28;20528;-90
2022/05/03 01:26:11;;;;;;;7.70;5.32;;;14.60;99.90;;;;;;5091812;28;20031;-90
2022/05/03 01:28:58;;;;;;;6.35;5.60;;;14.80;99.90;;;;;;5090998;28;20149;-90
2022/05/03 01:31:24;;;;;;;7.43;5.50;;;15.10;99.90;;;;;;5075388;28;20032;-89
2022/05/03 01:33:50;;;;;;;5.78;5.28;;;15.00;99.90;;;;;;5090631;28;20123;-90
2022/05/03 01:36:27;;;;;;;5.97;5.25;;;14.90;99.90;;;;;;5091785;28;20484;-90
2022/05/03 01:39:06;;;;;;;6.10;5.60;;;14.70;99.90;;;;;;5091228;28;20039;-90
2022/05/03 01:41:51;;;;;;;5.95;5.35;;;14.70;99.90;;;;;;5090263;28;20488;-90
2022/05/03 01:44:34;;;;;;;6.55;5.95;;;14.70;99.90;;;;;;5091191;28;20024;-90
2022/05/03 01:47:10;;;;;;;6.13;5.53;;;14.30;99.90;;;;;;5093135;28;20481;-89
2022/05/03 01:50:19;;;;;;;6.55;5.50;;;14.40;99.90;;;;;;5094362;28;20164;-89
2022/05/03 01:53:10;;;;;;;5.85;5.35;;;14.40;99.90;;;;;;5081835;28;20043;-90
2022/05/03 01:56:03;;;;;;;6.50;5.82;;;14.40;99.90;;;;;;5081559;28;20461;-89
2022/05/03 01:59:06;;;;;;;7.55;5.97;;;14.60;99.90;;;;;;5080766;28;20031;-90
2022/05/03 02:01:41;;;;;;;6.40;5.70;;;14.10;99.90;;;;;;5080905;28;20028;-90
2022/05/03 02:04:06;;;;;;;6.15;5.60;;;14.00;99.90;;;;;;5094889;28;20020;-90
2022/05/03 02:06:54;;;;;;;6.07;5.57;;;14.00;99.90;;;;;;5096886;28;20054;-89
2022/05/03 02:09:45;;;;;;;6.50;5.85;;;13.90;99.90;;;;;;5096596;28;20043;-90
2022/05/03 02:12:15;;;;;;;7.10;5.72;;;13.70;99.90;;;;;;5094340;28;20035;-90
2022/05/03 02:14:50;;;;;;;6.45;5.53;;;13.80;99.90;;;;;;5094337;28;20039;-90
2022/05/03 02:17:54;;;;;;;6.32;5.72;;;14.00;99.90;;;;;;5093555;28;20035;-89
2022/05/03 02:20:29;;;;;;;6.82;5.63;;;14.20;99.90;;;;;;5092869;28;20039;-89
2022/05/03 02:23:15;;;;;;;5.80;5.20;;;14.30;99.90;;;;;;5093946;28;20042;-90
2022/05/03 02:26:07;;;;;;;6.70;6.00;;;14.50;99.90;;;;;;5094285;28;20024;-88
2022/05/03 02:28:43;;;;;;;6.65;6.05;;;14.50;99.90;;;;;;5079892;28;20031;-90
2022/05/03 02:31:27;;;;;;;6.15;5.55;;;14.20;99.90;;;;;;5093048;28;20040;-90
2022/05/03 02:34:04;;;;;;;6.97;5.75;;;13.90;99.90;;;;;;5090315;28;20143;-89
2022/05/03 02:36:39;;;;;;;7.32;6.05;;;13.90;99.90;;;;;;5091944;28;20559;-90
2022/05/03 02:39:06;;;;;;;7.00;6.30;;;14.00;99.90;;;;;;5093181;28;20170;-89
2022/05/03 02:41:38;;;;;;;8.18;6.20;;;13.70;99.90;;;;;;5092978;28;20056;-90
2022/05/03 02:44:04;;;;;;;7.25;5.68;;;13.60;99.90;;;;;;5092718;28;20039;-89
2022/05/03 02:46:45;;;;;;;7.78;6.10;;;13.50;99.90;;;;;;5094627;28;20044;-90
2022/05/03 02:49:36;;;;;;;9.23;7.30;;;13.40;99.90;;;;;;5093559;28;20042;-89
2022/05/03 02:52:19;;;;;;;7.57;6.80;;;13.60;99.90;;;;;;5101209;28;20036;-89
2022/05/03 02:55:00;;;;;;;7.32;6.53;;;13.80;99.90;;;;;;5089495;28;20032;-89
2022/05/03 02:57:39;;;;;;;6.63;6.03;;;13.90;99.90;;;;;;5093777;28;20492;-89
2022/05/03 03:03:17;;;;;;;8.43;6.63;;;14.00;99.90;;;;;;5093860;28;20089;-89
2022/05/03 03:05:47;;;;;;;7.55;6.43;;;13.80;99.90;;;;;;5093703;28;20060;-90
2022/05/03 03:08:19;;;;;;;7.28;6.57;;;13.80;99.90;;;;;;5092368;28;20024;-90
2022/05/03 03:11:04;;;;;;;7.32;6.35;;;14.00;99.90;;;;;;5093480;28;20038;-90
2022/05/03 03:13:51;;;;;;;7.82;6.38;;;14.10;99.90;;;;;;5078067;28;20035;-90
2022/05/03 03:16:25;;;;;;;7.35;6.65;;;13.90;99.90;;;;;;5076117;28;20055;-90
2022/05/03 03:18:52;;;;;;;7.53;6.63;;;13.60;99.90;;;;;;5088931;28;20028;-89
2022/05/03 03:21:24;;;;;;;10.77;6.30;;;13.80;99.90;;;;;;5093966;28;20032;-90
2022/05/03 03:23:52;;;;;;;6.53;5.90;;;13.90;99.90;;;;;;5093138;28;20419;-90
2022/05/03 03:26:20;;;;;;;7.93;6.10;;;13.90;99.90;;;;;;5092949;28;20027;-90
2022/05/03 03:28:47;;;;;;;9.02;6.53;;;13.80;99.90;;;;;;5091900;28;20036;-90
2022/05/03 03:31:14;;;;;;;7.30;6.60;;;13.90;99.90;;;;;;5091735;28;20039;-90
2022/05/03 03:33:41;;;;;;;7.45;6.55;;;14.00;99.90;;;;;;5093279;28;20025;-90
2022/05/03 03:36:08;;;;;;;8.18;6.45;;;14.10;99.90;;;;;;5092471;28;20547;-90
2022/05/03 03:38:40;;;;;;;7.47;6.70;;;14.10;99.90;;;;;;5093241;28;20530;-90
2022/05/03 03:41:07;;;;;;;7.35;6.65;;;14.20;99.90;;;;;;5092746;28;20028;-89
2022/05/03 03:43:32;;;;;;;6.82;6.10;;;14.10;99.90;;;;;;5092718;28;20024;-90
2022/05/03 03:45:58;;;;;;;7.43;6.43;;;14.10;99.90;;;;;;5093538;28;20481;-90
2022/05/03 03:48:24;;;;;;;8.63;6.90;;;14.00;99.90;;;;;;5093034;28;20031;-90
2022/05/03 03:50:51;;;;;;;8.00;7.28;;;13.90;99.90;;;;;;5092984;28;20079;-89
2022/05/03 03:53:17;;;;;;;7.40;6.68;;;14.00;99.90;;;;;;5091382;28;20031;-90
2022/05/03 03:55:44;;;;;;;8.10;7.30;;;14.00;99.90;;;;;;5091879;28;20028;-89
2022/05/03 03:58:10;;;;;;;8.23;6.85;;;14.10;99.90;;;;;;5092869;28;20020;-90
2022/05/03 04:00:36;;;;;;;7.80;6.97;;;14.30;99.90;;;;;;5093085;28;20491;-90
2022/05/03 04:03:04;;;;;;;9.68;7.30;;;14.10;99.90;;;;;;5091077;28;20054;-89
2022/05/03 04:05:32;;;;;;;7.00;6.30;;;14.20;99.90;;;;;;5091134;28;20032;-90
2022/05/03 04:07:57;;;;;;;8.18;7.35;;;14.10;99.90;;;;;;5092242;28;20028;-89
2022/05/03 04:10:23;;;;;;;7.45;6.47;;;13.80;99.90;;;;;;5090233;28;20047;-90
2022/05/03 04:12:49;;;;;;;7.82;6.75;;;13.90;99.90;;;;;;5092904;28;20030;-90
2022/05/03 04:15:14;;;;;;;6.97;6.28;;;13.70;99.90;;;;;;5091529;28;20035;-90
2022/05/03 04:17:40;;;;;;;8.57;6.25;;;13.50;99.90;;;;;;5091745;28;20035;-90
2022/05/03 04:20:06;;;;;;;7.75;7.05;;;13.70;99.90;;;;;;5091206;28;20036;-89
2022/05/03 04:22:34;;;;;;;11.68;7.32;;;13.90;99.90;;;;;;5091085;28;20020;-90
2022/05/03 04:25:00;;;;;;;9.20;7.10;;;14.00;99.90;;;;;;5091680;28;20032;-89
2022/05/03 04:27:27;;;;;;;8.50;7.10;;;14.00;99.90;;;;;;5092292;28;20496;-90
2022/05/03 04:29:53;;;;;;;10.82;7.18;;;13.90;99.90;;;;;;5092529;28;20039;-89
2022/05/03 04:32:20;;;;;;;7.85;7.10;;;14.00;99.90;;;;;;5090394;28;20042;-89
2022/05/03 04:34:46;;;;;;;8.23;7.43;;;14.10;99.90;;;;;;5092454;28;20024;-89
2022/05/03 04:37:12;;;;;;;9.68;7.68;;;14.10;99.90;;;;;;5090623;28;20074;-90
2022/05/03 04:39:38;;;;;;;8.32;7.53;;;14.00;99.90;;;;;;5091711;28;20024;-90
2022/05/03 04:42:04;;;;;;;12.68;7.68;;;14.00;99.90;;;;;;5091751;28;20032;-89
2022/05/03 04:44:30;;;;;;;7.82;7.03;;;14.10;99.90;;;;;;5091724;28;20032;-89
2022/05/03 04:46:55;;;;;;;8.82;7.10;;;13.60;99.90;;;;;;5090416;28;20020;-89
2022/05/03 04:49:21;;;;;;;9.13;7.40;;;13.60;99.90;;;;;;5090567;28;20047;-89
2022/05/03 04:51:47;;;;;;;8.15;7.32;;;13.80;99.90;;;;;;5092803;28;20380;-89
2022/05/03 04:54:12;;;;;;;8.00;7.20;;;14.00;99.90;;;;;;5090767;28;20036;-90
2022/05/03 04:56:41;;;;;;;7.45;6.75;;;14.10;99.90;;;;;;5091949;28;20024;-89
2022/05/03 04:59:07;;;;;;;9.40;7.57;;;14.00;99.90;;;;;;5092383;28;20164;-89
2022/05/03 05:01:32;;;;;;;8.80;7.22;;;13.90;99.90;;;;;;5092432;28;20067;-90
2022/05/03 05:03:58;;;;;;;8.07;7.07;;;13.90;99.90;;;;;;5090745;28;20027;-89
2022/05/03 05:06:23;;;;;;;8.57;7.55;;;14.00;99.90;;;;;;5091104;28;20124;-89
2022/05/03 05:08:49;;;;;;;8.27;7.47;;;13.70;99.90;;;;;;5091487;28;20059;-90
2022/05/03 05:11:15;;;;;;;12.93;8.05;;;13.80;99.90;;;;;;5090524;28;20036;-89
2022/05/03 05:13:41;;;;;;;12.00;7.20;;;13.80;99.90;;;;;;5091715;28;20024;-90
2022/05/03 05:16:07;;;;;;;8.55;7.68;;;13.90;99.90;;;;;;5089941;28;20032;-89
2022/05/03 05:18:33;;;;;;;9.35;7.75;;;14.00;99.90;;;;;;5090890;28;20111;-89
2022/05/03 05:20:59;;;;;;;8.65;7.45;;;13.90;99.90;;;;;;5093523;28;20123;-89
2022/05/03 05:23:25;;;;;;;8.80;7.88;;;13.80;99.90;;;;;;5095566;28;20031;-88
2022/05/03 05:25:51;;;;;;;8.55;7.68;;;13.90;99.90;;;;;;5095334;28;20052;-89
2022/05/03 05:28:18;;;;;;;11.38;8.15;;;14.10;99.90;;;;;;5077791;28;20401;-89
2022/05/03 05:30:44;;;;;;;9.15;8.05;;;14.10;99.90;;;;;;5076092;28;20090;-89
2022/05/03 05:33:10;;;;;;;11.05;8.38;;;14.20;99.90;;;;;;5093909;28;20032;-90
2022/05/03 05:35:36;;;;;;;11.68;8.18;;;14.20;99.90;;;;;;5095550;28;20039;-88
2022/05/03 05:38:02;;;;;;;10.40;8.45;;;14.00;99.90;;;;;;5096178;28;20072;-89
2022/05/03 05:40:28;;;;;;;9.15;7.88;;;14.00;99.90;;;;;;5094305;28;20016;-90
2022/05/03 05:42:54;;;;;;;11.70;8.07;;;14.00;99.90;;;;;;5095518;28;20373;-89
2022/05/03 05:45:19;;;;;;;12.77;9.23;;;14.10;99.90;;;;;;5095810;28;20028;-89
2022/05/03 05:47:45;;;;;;;9.52;7.82;;;14.10;99.90;;;;;;5094648;28;20504;-90
2022/05/03 05:50:11;;;;;;;8.32;7.57;;;13.80;99.90;;;;;;5095259;28;20060;-89
2022/05/03 05:55:22;;;;;;;10.95;7.13;;;13.80;99.90;;;;;;5080085;28;20039;-90
2022/05/03 05:57:48;;;;;;;9.20;7.30;;;13.80;99.90;;;;;;5095056;28;20020;-89
2022/05/03 06:00:14;;;;;;;16.23;8.63;;;13.80;99.90;;;;;;5093980;28;20020;-89
2022/05/03 06:02:40;;;;;;;17.60;8.23;;;13.80;99.90;;;;;;5093549;28;20028;-89
2022/05/03 06:05:06;;;;;;;13.40;8.48;;;13.80;99.90;;;;;;5094725;28;20032;-92
2022/05/03 06:07:32;;;;;;;12.18;8.57;;;14.10;99.90;;;;;;5094946;28;20020;-89
2022/05/03 06:09:58;;;;;;;10.20;9.15;;;14.40;99.90;;;;;;5093677;28;20039;-88
2022/05/03 06:12:24;;;;;;;14.60;9.23;;;14.40;99.90;;;;;;5095659;28;20488;-88
2022/05/03 06:14:49;;;;;;;15.32;9.60;;;14.40;99.90;;;;;;5094255;28;20040;-89
2022/05/03 06:17:15;;;;;;;14.68;9.25;;;14.60;99.90;;;;;;5094702;28;20551;-89
2022/05/03 06:19:41;;;;;;;13.00;9.25;;;14.60;99.90;;;;;;5094447;28;20571;-85
2022/05/03 06:22:06;;;;;;;14.52;9.43;;;14.70;99.90;;;;;;5094118;28;20024;-86
2022/05/03 06:24:32;;;;;;;10.38;8.70;;;14.80;99.90;;;;;;5094037;28;20035;-86
2022/05/03 06:26:58;;;;;;;17.90;9.70;;;14.80;99.90;;;;;;5093224;28;20397;-85
2022/05/03 06:29:24;;;;;;;12.00;8.88;;;15.00;99.90;;;;;;5093356;28;20050;-85
2022/05/03 06:31:50;;;;;;;11.88;9.20;;;15.20;99.90;;;;;;5092647;28;20020;-86
2022/05/03 06:34:16;;;;;;;13.88;9.30;;;15.30;99.90;;;;;;5093566;28;20024;-86
2022/05/03 06:36:42;;;;;;;12.43;8.65;;;15.30;99.90;;;;;;5094636;28;20453;-85
2022/05/03 06:39:08;;;;;;;10.15;9.13;;;15.30;99.90;;;;;;5093432;28;20042;-86
2022/05/03 06:41:34;;;;;;;10.88;8.82;;;15.50;99.90;;;;;;5093096;28;20032;-85
2022/05/03 06:44:00;;;;;;;9.90;8.90;;;15.70;99.90;;;;;;5093342;28;20027;-85
2022/05/03 06:46:26;;;;;;;12.10;10.30;;;15.70;99.90;;;;;;5093763;28;20054;-85
2022/05/03 06:48:52;;;;;;;11.32;8.85;;;15.70;99.90;;;;;;5093883;28;20020;-85
2022/05/03 06:51:18;;;;;;;13.27;9.20;;;15.80;99.90;;;;;;5093942;28;20446;-85
2022/05/03 06:53:44;;;;;;;12.80;8.77;;;15.90;99.90;;;;;;5093509;28;20141;-85
2022/05/03 06:56:09;;;;;;;11.30;8.88;;;15.80;99.90;;;;;;5092984;28;20028;-85
2022/05/03 06:58:35;;;;;;;9.82;8.13;;;16.00;99.90;;;;;;5093102;28;20027;-85
2022/05/03 07:01:11;;;;;;;11.05;8.80;;;16.20;99.90;;;;;;5093646;28;20392;-85
2022/05/03 07:03:38;;;;;;;9.15;7.82;;;16.40;99.90;;;;;;5092549;28;20016;-85
2022/05/03 07:06:04;;;;;;;9.27;8.02;;;16.40;99.90;;;;;;5092929;28;20043;-86
2022/05/03 07:08:32;;;;;;;9.07;7.93;;;16.50;99.90;;;;;;5092676;28;20032;-84
2022/05/03 07:10:57;;;;;;;14.07;8.50;;;16.70;99.90;;;;;;5092464;28;20040;-85
2022/05/03 07:13:24;;;;;;;11.15;8.88;;;16.50;99.90;;;;;;5093089;28;20500;-86
2022/05/03 07:15:53;;;;;;;11.45;8.32;;;16.60;99.90;;;;;;5093278;28;20067;-85
2022/05/03 07:23:49;;;;;;;10.38;8.77;;;16.90;99.90;;;;;;5093470;28;20039;-85
2022/05/03 07:26:14;;;;;;;9.35;8.02;;;16.80;99.90;;;;;;5092164;28;20029;-85
2022/05/03 07:28:40;;;;;;;13.38;8.30;;;16.90;99.90;;;;;;5092498;28;20089;-85
2022/05/03 07:31:06;;;;;;;11.35;8.02;;;16.80;99.90;;;;;;5092592;28;20031;-85
2022/05/03 07:33:32;;;;;;;14.25;8.25;;;17.00;99.90;;;;;;5093268;28;20399;-85
2022/05/03 07:35:58;;;;;;;14.32;8.60;;;16.90;99.90;;;;;;5092480;28;20032;-85
2022/05/03 07:38:23;;;;;;;13.80;9.20;;;17.00;99.90;;;;;;5092610;28;20036;-86
2022/05/03 07:40:49;;;;;;;12.50;9.40;;;17.20;99.90;;;;;;5092925;28;20028;-85
2022/05/03 07:43:15;;;;;;;10.98;8.63;;;17.20;99.90;;;;;;5092621;28;20031;-85
2022/05/03 07:45:40;;;;;;;10.00;8.82;;;17.00;99.90;;;;;;5092987;28;20024;-85
2022/05/03 07:48:06;;;;;;;11.23;8.50;;;17.10;99.90;;;;;;5092479;28;20031;-85
2022/05/03 07:50:32;;;;;;;9.68;7.70;;;17.20;99.90;;;;;;5091919;28;20551;-85
2022/05/03 07:52:58;;;;;;;11.20;7.88;;;17.30;99.90;;;;;;5092228;28;20493;-85
2022/05/03 07:55:23;;;;;;;10.52;7.82;;;17.20;99.90;;;;;;5092425;28;20101;-84
2022/05/03 07:57:49;;;;;;;10.40;8.27;;;17.30;99.90;;;;;;5092634;28;20028;-84
2022/05/03 08:00:15;;;;;;;10.73;8.35;;;17.50;99.90;;;;;;5092099;28;20139;-85
2022/05/03 08:02:41;;;;;;;9.60;8.60;;;17.30;99.90;;;;;;5092437;28;20020;-85
2022/05/03 08:05:08;;;;;;;13.90;9.65;;;17.40;99.90;;;;;;5091564;28;20024;-85
2022/05/03 08:07:35;;;;;;;11.77;9.40;;;17.50;99.90;;;;;;5091983;28;20489;-85
2022/05/03 08:10:01;;;;;;;12.70;9.23;;;17.40;99.90;;;;;;5091701;28;20040;-85
2022/05/03 08:12:27;;;;;;;10.52;8.18;;;17.60;99.90;;;;;;5092317;28;20028;-85
2022/05/03 08:14:53;;;;;;;11.77;9.30;;;17.90;99.90;;;;;;5091719;28;20046;-85
2022/05/03 08:17:19;;;;;;;12.50;9.27;;;17.90;99.90;;;;;;5091551;28;20081;-85
2022/05/03 08:19:45;;;;;;;9.93;8.52;;;17.90;99.90;;;;;;5091773;28;20032;-85
2022/05/03 08:22:11;;;;;;;9.63;8.48;;;18.00;99.90;;;;;;5091794;28;20051;-85
2022/05/03 08:24:37;;;;;;;10.40;8.15;;;18.10;99.90;;;;;;5092435;28;20085;-85
2022/05/03 08:27:03;;;;;;;8.95;7.82;;;18.00;99.90;;;;;;5091250;28;20040;-85
2022/05/03 08:29:31;;;;;;;9.43;8.52;;;18.10;99.90;;;;;;5089961;28;20031;-85
2022/05/03 08:31:58;;;;;;;8.77;7.68;;;18.20;99.90;;;;;;5091591;28;20424;-85
2022/05/03 08:34:24;;;;;;;11.88;8.43;;;18.20;99.90;;;;;;5091334;28;20060;-85
2022/05/03 08:42:18;;;;;;;8.95;8.05;;;18.20;99.90;;;;;;5091742;28;20507;-85
2022/05/03 08:44:44;;;;;;;10.63;8.45;;;18.40;99.90;;;;;;5091683;28;20036;-85
2022/05/03 08:47:10;;;;;;;11.32;8.35;;;18.50;99.90;;;;;;5091230;28;20024;-85
2022/05/03 08:50:01;;;;;;;9.60;8.23;;;18.60;99.90;;;;;;5091190;28;20031;-85
2022/05/03 08:52:29;;;;;;;9.70;8.32;;;18.50;99.90;;;;;;5072085;28;20136;-85
2022/05/03 08:54:58;;;;;;;11.90;8.57;;;18.50;99.90;;;;;;5092295;28;20107;-85
2022/05/03 08:57:24;;;;;;;15.32;8.70;;;18.80;99.90;;;;;;5098308;28;20088;-85
2022/05/03 08:59:52;;;;;;;8.48;7.57;;;18.70;99.90;;;;;;5097999;28;20020;-85
2022/05/03 09:02:18;;;;;;;9.25;8.35;;;18.70;99.90;;;;;;5098749;28;20020;-84
2022/05/03 09:04:43;;;;;;;10.10;9.20;;;18.80;99.90;;;;;;5097770;28;20064;-87
2022/05/03 09:07:23;;;;;;;10.60;9.05;;;18.70;99.90;;;;;;5098093;28;20043;-87
2022/05/03 09:09:51;;;;;;;9.68;8.60;;;18.60;99.90;;;;;;5094632;28;20071;-87
2022/05/03 09:12:28;;;;;;;10.30;9.27;;;18.90;99.90;;;;;;5098748;28;20114;-88
2022/05/03 09:14:58;;;;;;;9.38;8.50;;;18.90;99.90;;;;;;5098555;28;20024;-90
2022/05/03 09:17:41;;;;;;;10.45;8.70;;;19.00;99.90;;;;;;5097625;28;20036;-92
2022/05/03 09:26:19;;;;;;;9.50;8.50;;;19.10;99.90;;;;;;5076900;28;20128;-91
2022/05/03 09:28:53;;;;;;;9.90;8.73;;;19.50;99.90;;;;;;5047898;28;20051;-92
2022/05/03 09:31:43;;;;;;;10.57;9.23;;;19.50;99.90;;;;;;5061135;28;20036;-92
2022/05/03 09:34:25;;;;;;;11.65;9.32;;;19.60;99.90;;;;;;5076020;28;20384;-92
2022/05/03 09:37:05;;;;;;;12.77;9.32;;;19.50;99.90;;;;;;5073375;28;20665;-93
2022/05/03 09:39:46;;;;;;;9.65;8.55;;;19.60;99.90;;;;;;5065239;28;20033;-93
2022/05/03 09:42:17;;;;;;;13.57;9.07;;;19.80;99.90;;;;;;5076743;28;20032;-91
2022/05/03 09:44:58;;;;;;;12.02;9.35;;;20.20;99.90;;;;;;5060578;28;20148;-93
2022/05/03 09:47:28;;;;;;;11.48;9.13;;;20.20;99.90;;;;;;5060869;28;20044;-93
2022/05/03 09:49:54;;;;;;;10.63;9.50;;;20.10;99.90;;;;;;5077105;28;20028;-92
2022/05/03 09:52:28;;;;;;;10.50;9.48;;;19.90;99.90;;;;;;5066394;28;20021;-92
2022/05/03 09:54:59;;;;;;;13.77;9.77;;;20.30;99.90;;;;;;5077820;28;20036;-93
2022/05/03 09:57:27;;;;;;;10.82;9.75;;;20.70;99.90;;;;;;5070907;28;20032;-94
2022/05/03 09:59:55;;;;;;;13.65;9.93;;;20.50;99.90;;;;;;5076677;28;20033;-92
2022/05/03 10:02:22;;;;;;;14.10;9.38;;;20.30;99.90;;;;;;5090874;28;20035;-91
2022/05/03 10:04:50;;;;;;;10.55;9.45;;;20.50;99.90;;;;;;5099786;28;20027;-94
2022/05/03 10:07:17;;;;;;;11.80;10.18;;;20.80;99.90;;;;;;5096281;28;22694;-91
2022/05/03 10:09:45;;;;;;;11.55;9.85;;;21.00;99.90;;;;;;5096886;28;20032;-92
2022/05/03 10:12:12;;;;;;;10.70;9.60;;;20.90;99.90;;;;;;5096535;28;20032;-94
2022/05/03 10:14:42;;;;;;;10.40;9.45;;;21.00;99.90;;;;;;5095105;28;20510;-92
2022/05/03 10:20:40;;;;;;;10.82;9.48;;;21.50;99.90;;;;;;5095712;28;20557;-91
2022/05/03 10:23:28;;;;;;;11.32;9.40;;;21.20;99.90;;;;;;5097442;28;20480;-91
2022/05/03 10:25:57;;;;;;;11.25;9.43;;;21.40;99.90;;;;;;5094373;28;20081;-90
2022/05/03 10:28:24;;;;;;;12.57;9.20;;;21.30;99.90;;;;;;5094559;28;20032;-91
2022/05/03 10:31:05;;;;;;;9.88;8.88;;;21.50;99.90;;;;;;5094756;28;20036;-91
2022/05/03 10:33:30;;;;;;;10.38;9.35;;;21.60;99.90;;;;;;5090773;28;20093;-91
2022/05/03 10:35:58;;;;;;;9.63;8.75;;;21.50;99.90;;;;;;5094097;28;20036;-91
2022/05/03 10:38:39;;;;;;;9.95;9.05;;;21.60;99.90;;;;;;5095234;28;20027;-90
2022/05/03 10:41:05;;;;;;;9.75;8.77;;;21.80;99.90;;;;;;5094038;28;20445;-91
2022/05/03 10:43:33;;;;;;;13.77;9.57;;;22.10;99.90;;;;;;5095813;28;20031;-93
2022/05/03 10:46:09;;;;;;;10.40;9.32;;;22.30;99.90;;;;;;5094615;28;20028;-94
2022/05/03 10:48:36;;;;;;;9.48;8.57;;;22.10;99.90;;;;;;5094621;28;20069;-92
2022/05/03 10:51:04;;;;;;;9.30;8.50;;;22.10;99.90;;;;;;5093941;28;20039;-92
2022/05/03 10:53:43;;;;;;;9.13;8.23;;;22.30;99.90;;;;;;5094011;28;20036;-91
2022/05/03 10:56:16;;;;;;;9.43;8.52;;;22.10;99.90;;;;;;5095080;28;20024;-91
2022/05/03 10:59:12;;;;;;;10.30;8.60;;;22.10;99.90;;;;;;5095241;28;20026;-90
2022/05/03 11:01:56;;;;;;;10.50;8.85;;;22.20;99.90;;;;;;5080774;28;20095;-90
2022/05/03 11:04:23;;;;;;;9.95;8.98;;;22.40;99.90;;;;;;5077275;28;20032;-89
2022/05/03 11:06:51;;;;;;;8.95;8.00;;;22.80;99.90;;;;;;5093482;28;20027;-91
2022/05/03 11:09:28;;;;;;;9.82;8.85;;;23.00;99.90;;;;;;5094119;28;20122;-92
2022/05/03 11:11:56;;;;;;;8.63;7.85;;;23.40;99.90;;;;;;5094196;28;20040;-91
2022/05/03 11:14:22;;;;;;;9.07;8.15;;;23.50;99.90;;;;;;5094373;28;20046;-91
2022/05/03 11:17:05;;;;;;;8.35;7.55;;;23.60;99.90;;;;;;5094518;28;20028;-92
2022/05/03 11:19:34;;;;;;;7.35;6.75;;;23.80;99.90;;;;;;5080359;28;20028;-92
2022/05/03 11:22:00;;;;;;;8.30;7.60;;;24.50;99.90;;;;;;5094214;28;20030;-92
2022/05/03 11:24:28;;;;;;;8.30;6.45;;;24.80;99.90;;;;;;5093548;28;20111;-92
2022/05/03 11:26:59;;;;;;;8.18;6.13;;;25.10;99.90;;;;;;5094047;28;20464;-92
2022/05/03 11:29:30;;;;;;;6.57;5.80;;;25.10;99.90;;;;;;5092859;28;20043;-93
2022/05/03 11:31:59;;;;;;;6.53;5.85;;;25.00;99.90;;;;;;5093660;28;20364;-91
2022/05/03 11:34:24;;;;;;;6.57;5.97;;;24.80;99.90;;;;;;5093849;28;20024;-92
2022/05/03 11:36:50;;;;;;;6.32;5.55;;;24.70;99.90;;;;;;5094599;28;20066;-92
2022/05/03 11:39:17;;;;;;;6.45;5.93;;;24.80;99.90;;;;;;5093573;28;20054;-92
2022/05/03 11:41:43;;;;;;;6.30;5.80;;;25.00;99.90;;;;;;5093309;28;20028;-92
2022/05/03 11:44:09;;;;;;;7.28;6.57;;;25.00;99.90;;;;;;5092206;28;20035;-92
2022/05/03 11:46:37;;;;;;;6.88;6.20;;;24.80;99.90;;;;;;5092223;28;20101;-91
2022/05/03 11:49:05;;;;;;;7.30;6.60;;;24.80;99.90;;;;;;5093642;28;20024;-91
2022/05/03 11:57:12;;;;;;;6.30;5.80;;;25.30;99.90;;;;;;5093615;28;20123;-91
2022/05/03 11:59:42;;;;;;;7.15;6.43;;;25.70;99.90;;;;;;5093455;28;20028;-92
2022/05/03 12:02:18;;;;;;;6.97;6.30;;;25.60;99.90;;;;;;5093093;28;20028;-91
2022/05/03 12:05:16;;;;;;;8.15;7.38;;;25.40;99.90;;;;;;5093248;28;20024;-92
2022/05/03 12:07:49;;;;;;;8.93;6.72;;;25.50;99.90;;;;;;5080236;28;20039;-91
2022/05/03 12:10:23;;;;;;;7.82;7.13;;;25.70;99.90;;;;;;5093074;28;20036;-91
2022/05/03 12:13:13;;;;;;;7.60;7.00;;;26.00;99.90;;;;;;5088631;28;20020;-91
2022/05/03 12:15:47;;;;;;;7.75;6.90;;;26.20;99.90;;;;;;5092484;28;20032;-92
2022/05/03 12:18:28;;;;;;;7.47;6.65;;;26.40;99.90;;;;;;5092627;28;20067;-91
2022/05/03 12:20:57;;;;;;;6.75;6.10;;;26.80;99.90;;;;;;5092795;28;20042;-92
2022/05/03 12:23:24;;;;;;;6.57;5.85;;;26.80;99.90;;;;;;5093027;28;20118;-92
2022/05/03 12:25:55;;;;;;;5.07;4.68;;;27.10;99.90;;;;;;5091778;28;20081;-92
2022/05/03 12:28:34;;;;;;;6.18;5.68;;;27.30;99.90;;;;;;5075919;28;20050;-91
2022/05/03 12:31:02;;;;;;;7.65;7.05;;;27.50;99.90;;;;;;5089722;28;20496;-91
2022/05/03 12:33:28;;;;;;;5.45;4.97;;;27.60;99.90;;;;;;5093404;28;20051;-92
2022/05/03 12:35:53;;;;;;;5.55;5.05;;;27.70;99.90;;;;;;5091628;28;20052;-91
2022/05/03 12:38:24;;;;;;;5.97;5.47;;;28.10;99.90;;;;;;5091669;28;20036;-92
2022/05/03 12:40:54;;;;;;;7.20;5.80;;;28.90;99.90;;;;;;5093123;28;20115;-92
2022/05/03 12:43:23;;;;;;;6.18;5.35;;;29.00;99.90;;;;;;5076528;28;20031;-92
2022/05/03 12:45:58;;;;;;;5.88;5.38;;;28.90;99.90;;;;;;5089095;28;20063;-92
2022/05/03 12:48:26;;;;;;;5.90;5.40;;;29.70;99.90;;;;;;5092124;28;20028;-91
2022/05/03 12:50:52;;;;;;;7.32;6.68;;;30.40;99.90;;;;;;5091691;28;20040;-92
2022/05/03 12:53:23;;;;;;;6.50;6.00;;;30.00;99.90;;;;;;5091523;28;20028;-92
2022/05/03 12:55:49;;;;;;;6.47;5.88;;;30.30;99.90;;;;;;5091304;28;20024;-91
2022/05/03 12:58:24;;;;;;;8.73;6.10;;;28.80;99.90;;;;;;5091130;28;20073;-92
2022/05/03 13:00:57;;;;;;;6.53;6.03;;;28.70;99.90;;;;;;5089276;28;20036;-91
2022/05/03 13:03:24;;;;;;;7.13;5.72;;;29.40;99.90;;;;;;5091895;28;20103;-91
2022/05/03 13:05:50;;;;;;;5.68;5.22;;;29.40;99.90;;;;;;5092537;28;20086;-92
2022/05/03 13:08:19;;;;;;;5.55;5.05;;;29.50;99.90;;;;;;5092042;28;20024;-91
2022/05/03 13:10:45;;;;;;;5.43;4.93;;;28.90;99.90;;;;;;5091037;28;20036;-91
2022/05/03 13:13:12;;;;;;;6.53;5.15;;;27.80;99.90;;;;;;5090642;28;20036;-91
2022/05/03 13:15:40;;;;;;;7.53;4.05;;;27.90;99.90;;;;;;5092845;28;20020;-91
2022/05/03 13:18:06;;;;;;;5.65;5.15;;;27.20;99.90;;;;;;5091990;28;20057;-91
2022/05/03 13:20:32;;;;;;;6.00;4.63;;;26.90;99.90;;;;;;5090534;28;20024;-91
2022/05/03 13:22:58;;;;;;;4.25;3.95;;;26.40;99.90;;;;;;5090378;28;20373;-91
2022/05/03 13:25:24;;;;;;;5.07;4.40;;;27.30;99.90;;;;;;5091349;28;20024;-91
2022/05/03 13:27:50;;;;;;;4.75;4.28;;;27.80;99.90;;;;;;5092156;28;20056;-90
2022/05/03 13:30:16;;;;;;;4.85;4.30;;;27.80;99.90;;;;;;5090826;28;20036;-91
2022/05/03 13:32:42;;;;;;;4.18;3.85;;;28.00;99.90;;;;;;5092103;28;20036;-90
2022/05/03 13:35:08;;;;;;;4.80;4.38;;;28.20;99.90;;;;;;5092120;28;20028;-92